No particular awareness of the weather is required.    There are no Weather-warnings


Meteo18 Weather Cam more information Meteo18 Weather Cam


Thunder radar more information blitzortung!


Rain radar more information rain snow radar


Visit our other weather sites:

Template documentation
and downloads

And another site



Weather Underground History page Text

Daily Summary for May 22, 2017 Units:  English    Metric   Both
« Previous Day
Next Day »
Daily Weekly Monthly Yearly Custom
  High: Low: Average:
Temperature: TemperatureC °F 9.6 °F 18.8 °F
Dew Point: DewpointC °F 7.6 °F 11.7 °F
Humidity: Humidity % 37 % 65 %
Wind Speed: WindSpeedKMH mph 0.0 mph 2.9 mph
Wind Gust: WindSpeedGustKMH mph - -
Wind:- - SSW
Pressure: PressurehPa in 1016.5 in -
Precipitation: 0.0 in    
Historical Graphs
 
 
Tabular Data for May 22, 2017
Time Temperature Dew Point Pressure Wind Wind Speed Wind Gust Humidity Rainfall Rate (Hourly)
TemperatureC °F DewpointC °F PressurehPa in Calm     Humidity % HourlyPrecipMM in
00:02 14.4 °F 9.6 °F 1019.5 in ENE 3.2 mph 6.4 mph 73 % 0.0 in
00:07 14.3 °F 9.5 °F 1019.5 in Calm   6.4 mph 73 % 0.0 in
00:12 14.2 °F 9.4 °F 1019.5 in NE 1.6 mph 6.4 mph 73 % 0.0 in
00:17 14.1 °F 9.5 °F 1019.2 in NE 1.6 mph 6.4 mph 74 % 0.0 in
00:22 13.9 °F 9.5 °F 1019.2 in Calm   4.8 mph 75 % 0.0 in
00:27 13.8 °F 9.4 °F 1019.2 in NE 1.6 mph 4.8 mph 75 % 0.0 in
00:32 13.8 °F 9.4 °F 1019.2 in NE 3.2 mph 3.2 mph 75 % 0.0 in
00:37 13.9 °F 9.5 °F 1019.2 in Calm   3.2 mph 75 % 0.0 in
00:42 13.8 °F 9.4 °F 1019.2 in NE 1.6 mph 4.8 mph 75 % 0.0 in
00:52 13.6 °F 9.4 °F 1019.2 in NE 1.6 mph 4.8 mph 76 % 0.0 in
00:57 13.4 °F 9.3 °F 1018.8 in NE 1.6 mph 4.8 mph 76 % 0.0 in
01:02 13.4 °F 9.3 °F 1018.8 in ENE 1.6 mph 4.8 mph 76 % 0.0 in
01:12 13.2 °F 9.1 °F 1018.8 in Calm   4.8 mph 76 % 0.0 in
01:17 12.7 °F 9.0 °F 1018.8 in WNW 1.6 mph 4.8 mph 78 % 0.0 in
01:22 12.6 °F 9.1 °F 1018.8 in Calm   4.8 mph 79 % 0.0 in
01:32 12.6 °F 9.1 °F 1018.8 in Calm   1.6 mph 79 % 0.0 in
01:37 12.3 °F 8.8 °F 1018.8 in Calm   1.6 mph 79 % 0.0 in
01:42 11.9 °F 8.7 °F 1018.8 in WNW 1.6 mph 1.6 mph 81 % 0.0 in
01:52 11.7 °F 8.9 °F 1018.5 in Calm   1.6 mph 83 % 0.0 in
01:57 11.5 °F 8.7 °F 1018.5 in Calm   1.6 mph 83 % 0.0 in
02:02 11.1 °F 8.7 °F 1018.5 in Calm   1.6 mph 85 % 0.0 in
02:12 11.3 °F 8.9 °F 1018.5 in Calm   1.6 mph 85 % 0.0 in
02:17 11.3 °F 8.7 °F 1018.5 in Calm   1.6 mph 84 % 0.0 in
02:22 11.3 °F 8.9 °F 1018.2 in Calm   1.6 mph 85 % 0.0 in
02:32 11.1 °F 8.5 °F 1018.2 in Calm   1.6 mph 84 % 0.0 in
02:37 11.1 °F 8.7 °F 1017.8 in WNW 1.6 mph 1.6 mph 85 % 0.0 in
02:42 11.1 °F 8.7 °F 1017.8 in Calm   1.6 mph 85 % 0.0 in
02:47 11.2 °F 8.8 °F 1017.8 in Calm   1.6 mph 85 % 0.0 in
02:52 11.3 °F 8.5 °F 1017.8 in Calm   1.6 mph 83 % 0.0 in
03:02 11.4 °F 8.6 °F 1017.8 in North 1.6 mph 1.6 mph 83 % 0.0 in
03:12 11.6 °F 8.6 °F 1017.5 in North 1.6 mph 3.2 mph 82 % 0.0 in
03:17 11.6 °F 8.6 °F 1017.5 in Calm   3.2 mph 82 % 0.0 in
03:22 11.5 °F 8.5 °F 1017.5 in North 1.6 mph 3.2 mph 82 % 0.0 in
03:32 11.4 °F 8.4 °F 1017.5 in Calm   4.8 mph 82 % 0.0 in
03:42 11.4 °F 8.6 °F 1017.5 in Calm   3.2 mph 83 % 0.0 in
03:52 11.4 °F 8.4 °F 1017.2 in Calm   3.2 mph 82 % 0.0 in
03:57 11.4 °F 8.4 °F 1017.2 in NNE 1.6 mph 3.2 mph 82 % 0.0 in
04:02 11.4 °F 8.3 °F 1017.2 in North 3.2 mph 3.2 mph 81 % 0.0 in
04:07 11.3 °F 8.2 °F 1017.2 in NNE 1.6 mph 4.8 mph 81 % 0.0 in
04:17 10.9 °F 7.9 °F 1017.2 in Calm   6.4 mph 82 % 0.0 in
04:22 10.6 °F 8.0 °F 1017.2 in Calm   6.4 mph 84 % 0.0 in
04:32 10.4 °F 8.0 °F 1017.2 in Calm   3.2 mph 85 % 0.0 in
04:37 10.4 °F 8.0 °F 1017.2 in Calm     85 % 0.0 in
04:42 10.4 °F 8.2 °F 1017.2 in Calm     86 % 0.0 in
04:47 10.4 °F 8.2 °F 1017.2 in Calm     86 % 0.0 in
04:52 10.4 °F 8.2 °F 1017.2 in Calm     86 % 0.0 in
05:02 10.2 °F 8.0 °F 1016.8 in Calm     86 % 0.0 in
05:12 10.1 °F 7.9 °F 1016.8 in Calm     86 % 0.0 in
05:17 10.1 °F 8.0 °F 1016.8 in Calm     87 % 0.0 in
05:22 10.2 °F 8.0 °F 1016.8 in Calm     86 % 0.0 in
05:32 10.2 °F 8.0 °F 1016.8 in Calm     86 % 0.0 in
05:37 10.1 °F 7.9 °F 1016.8 in Calm     86 % 0.0 in
05:42 10.2 °F 8.1 °F 1016.8 in Calm     87 % 0.0 in
05:47 10.2 °F 8.0 °F 1016.8 in Calm     86 % 0.0 in
05:52 10.1 °F 7.9 °F 1016.8 in Calm     86 % 0.0 in
06:02 10.0 °F 7.9 °F 1016.8 in NNW 1.6 mph   87 % 0.0 in
06:07 9.9 °F 7.8 °F 1016.8 in North 1.6 mph 3.2 mph 87 % 0.0 in
06:12 9.7 °F 7.6 °F 1016.8 in Calm   3.2 mph 87 % 0.0 in
06:17 9.7 °F 7.8 °F 1016.8 in Calm   3.2 mph 88 % 0.0 in
06:22 9.6 °F 7.7 °F 1016.8 in Calm   3.2 mph 88 % 0.0 in
06:32 9.9 °F 8.0 °F 1017.2 in Calm   1.6 mph 88 % 0.0 in
06:42 10.1 °F 8.2 °F 1017.2 in Calm   1.6 mph 88 % 0.0 in
06:47 10.5 °F 8.6 °F 1017.2 in Calm   1.6 mph 88 % 0.0 in
06:52 10.9 °F 8.5 °F 1017.2 in Calm   1.6 mph 85 % 0.0 in
07:02 11.3 °F 8.7 °F 1017.2 in Calm   3.2 mph 84 % 0.0 in
07:12 11.4 °F 8.6 °F 1017.2 in Calm   3.2 mph 83 % 0.0 in
07:17 11.4 °F 8.8 °F 1017.2 in North 1.6 mph 3.2 mph 84 % 0.0 in
07:22 11.7 °F 9.1 °F 1017.2 in Calm   3.2 mph 84 % 0.0 in
07:32 12.3 °F 9.1 °F 1017.2 in NNE 1.6 mph 3.2 mph 81 % 0.0 in
07:42 12.6 °F 9.4 °F 1017.2 in NNE 1.6 mph 3.2 mph 81 % 0.0 in
07:47 12.6 °F 9.4 °F 1017.2 in NE 1.6 mph 4.8 mph 81 % 0.0 in
07:52 12.7 °F 9.7 °F 1017.2 in NE 3.2 mph 4.8 mph 82 % 0.0 in
07:57 12.8 °F 10.0 °F 1017.2 in NE 4.8 mph 4.8 mph 83 % 0.0 in
08:02 12.9 °F 10.1 °F 1017.2 in Calm   4.8 mph 83 % 0.0 in
08:12 13.3 °F 10.5 °F 1016.8 in NE 3.2 mph 8.0 mph 83 % 0.0 in
08:22 13.8 °F 10.8 °F 1017.2 in Calm   6.4 mph 82 % 0.0 in
08:32 14.7 °F 11.3 °F 1017.2 in Calm   4.8 mph 80 % 0.0 in
08:37 15.0 °F 11.0 °F 1017.2 in Calm   1.6 mph 77 % 0.0 in
08:42 15.1 °F 11.3 °F 1017.2 in NE 1.6 mph 1.6 mph 78 % 0.0 in
08:52 15.8 °F 11.6 °F 1017.2 in East 1.6 mph 3.2 mph 76 % 0.0 in
09:02 16.5 °F 12.1 °F 1017.2 in Calm   8.0 mph 75 % 0.0 in
09:12 17.1 °F 11.4 °F 1017.2 in East 3.2 mph 6.4 mph 69 % 0.0 in
09:17 17.0 °F 11.9 °F 1017.5 in Calm   6.4 mph 72 % 0.0 in
09:22 17.2 °F 11.9 °F 1017.5 in Calm   6.4 mph 71 % 0.0 in
09:32 17.8 °F 12.3 °F 1017.5 in SSE 1.6 mph 6.4 mph 70 % 0.0 in
09:42 17.7 °F 12.2 °F 1017.5 in ESE 3.2 mph 4.8 mph 70 % 0.0 in
09:47 17.8 °F 12.9 °F 1017.5 in Calm   6.4 mph 73 % 0.0 in
09:52 18.2 °F 12.9 °F 1017.5 in SE 3.2 mph 6.4 mph 71 % 0.0 in
09:57 18.4 °F 12.4 °F 1017.5 in South 3.2 mph 6.4 mph 68 % 0.0 in
10:02 18.5 °F 12.3 °F 1017.5 in South 4.8 mph 6.4 mph 67 % 0.0 in
10:12 18.4 °F 12.2 °F 1017.5 in SSW 1.6 mph 8.0 mph 67 % 0.0 in
10:17 18.6 °F 12.4 °F 1017.2 in South 3.2 mph 9.7 mph 67 % 0.0 in
10:22 18.6 °F 11.9 °F 1017.5 in South 3.2 mph 9.7 mph 65 % 0.0 in
10:32 18.8 °F 12.5 °F 1017.2 in WSW 4.8 mph 11.3 mph 67 % 0.0 in
10:42 19.2 °F 12.9 °F 1017.2 in SSW 1.6 mph 12.9 mph 67 % 0.0 in
10:52 19.5 °F 12.7 °F 1017.2 in SSW 3.2 mph 9.7 mph 65 % 0.0 in
10:57 19.7 °F 13.2 °F 1017.2 in ESE 3.2 mph 8.0 mph 66 % 0.0 in
11:02 19.9 °F 13.6 °F 1017.2 in Calm   8.0 mph 67 % 0.0 in
11:12 20.6 °F 13.3 °F 1017.2 in Calm   9.7 mph 63 % 0.0 in
11:22 20.9 °F 13.3 °F 1017.2 in SSE 1.6 mph 8.0 mph 62 % 0.0 in
11:32 21.1 °F 12.8 °F 1017.2 in SSW 3.2 mph 8.0 mph 59 % 0.0 in
11:42 21.6 °F 14.0 °F 1016.8 in SW 6.4 mph 11.3 mph 62 % 0.0 in
11:47 21.6 °F 13.5 °F 1016.8 in South 1.6 mph 11.3 mph 60 % 0.0 in
11:52 21.8 °F 13.7 °F 1016.8 in SSW 3.2 mph 11.3 mph 60 % 0.0 in
12:02 22.1 °F 14.0 °F 1016.8 in Calm   9.7 mph 60 % 0.0 in
12:12 22.3 °F 15.2 °F 1017.2 in ESE 1.6 mph 6.4 mph 64 % 0.0 in
12:17 22.5 °F 13.6 °F 1017.2 in SW 8.0 mph 8.0 mph 57 % 0.0 in
12:22 22.4 °F 14.0 °F 1017.2 in Calm   6.4 mph 59 % 0.0 in
12:32 22.8 °F 13.6 °F 1017.2 in SSW 3.2 mph 9.7 mph 56 % 0.0 in
12:42 22.9 °F 13.4 °F 1017.2 in SSW 6.4 mph 12.9 mph 55 % 0.0 in
12:47 23.0 °F 13.2 °F 1017.2 in SSW 1.6 mph 12.9 mph 54 % 0.0 in
12:52 23.2 °F 14.2 °F 1017.2 in SSW 1.6 mph 12.9 mph 57 % 0.0 in
12:57 23.4 °F 14.1 °F 1017.2 in WSW 3.2 mph 8.0 mph 56 % 0.0 in
13:02 23.0 °F 13.5 °F 1017.2 in SW 6.4 mph 8.0 mph 55 % 0.0 in
13:12 23.3 °F 13.5 °F 1017.2 in SSW 1.6 mph 11.3 mph 54 % 0.0 in
13:17 23.9 °F 14.0 °F 1017.2 in SSW 1.6 mph 9.7 mph 54 % 0.0 in
13:22 24.1 °F 13.9 °F 1017.2 in Calm   9.7 mph 53 % 0.0 in
13:27 23.7 °F 13.8 °F 1017.2 in Calm   6.4 mph 54 % 0.0 in
13:32 23.8 °F 12.8 °F 1017.2 in Calm   6.4 mph 50 % 0.0 in
13:37 23.8 °F 13.4 °F 1017.2 in SSW 9.7 mph 9.7 mph 52 % 0.0 in
13:42 23.8 °F 13.9 °F 1017.2 in East 4.8 mph 9.7 mph 54 % 0.0 in
13:52 24.2 °F 14.6 °F 1017.2 in SSE 3.2 mph 11.3 mph 55 % 0.0 in
13:57 24.3 °F 12.6 °F 1017.2 in South 6.4 mph 8.0 mph 48 % 0.0 in
14:02 24.1 °F 13.0 °F 1017.2 in WSW 1.6 mph 8.0 mph 50 % 0.0 in
14:07 24.1 °F 12.7 °F 1017.2 in WSW 8.0 mph 11.3 mph 49 % 0.0 in
14:12 24.2 °F 12.8 °F 1017.2 in SSW 12.9 mph 12.9 mph 49 % 0.0 in
14:17 24.2 °F 12.5 °F 1017.2 in SSW 9.7 mph 14.5 mph 48 % 0.0 in
14:22 24.5 °F 14.0 °F 1017.2 in South 1.6 mph 14.5 mph 52 % 0.0 in
14:27 24.6 °F 13.8 °F 1017.2 in South 1.6 mph 14.5 mph 51 % 0.0 in
14:32 24.8 °F 14.0 °F 1017.2 in SW 6.4 mph 14.5 mph 51 % 0.0 in
14:37 24.7 °F 13.6 °F 1017.2 in SW 9.7 mph 12.9 mph 50 % 0.0 in
14:42 24.7 °F 13.3 °F 1017.2 in WSW 11.3 mph 12.9 mph 49 % 0.0 in
14:47 24.8 °F 12.4 °F 1017.2 in SW 6.4 mph 16.1 mph 46 % 0.0 in
14:52 25.1 °F 12.7 °F 1017.2 in WSW 6.4 mph 16.1 mph 46 % 0.0 in
14:57 25.2 °F 13.4 °F 1017.2 in SSW 4.8 mph 16.1 mph 48 % 0.0 in
15:02 25.2 °F 11.7 °F 1017.2 in South 4.8 mph 16.1 mph 43 % 0.0 in
15:12 25.0 °F 11.9 °F 1017.2 in SSW 3.2 mph 16.1 mph 44 % 0.0 in
15:17 25.1 °F 13.0 °F 1017.2 in SE 1.6 mph 11.3 mph 47 % 0.0 in
15:22 25.3 °F 12.8 °F 1017.2 in WSW 1.6 mph 11.3 mph 46 % 0.0 in
15:32 25.3 °F 12.2 °F 1016.8 in WSW 3.2 mph 11.3 mph 44 % 0.0 in
15:37 25.2 °F 11.7 °F 1016.8 in West 3.2 mph 11.3 mph 43 % 0.0 in
15:42 25.3 °F 11.8 °F 1016.8 in Calm   11.3 mph 43 % 0.0 in
15:47 25.7 °F 12.5 °F 1016.8 in Calm   12.9 mph 44 % 0.0 in
15:52 25.9 °F 11.6 °F 1016.8 in SW 8.0 mph 12.9 mph 41 % 0.0 in
15:57 25.7 °F 11.1 °F 1016.8 in SW 6.4 mph 11.3 mph 40 % 0.0 in
16:02 25.7 °F 11.5 °F 1016.8 in WSW 1.6 mph 11.3 mph 41 % 0.0 in
16:07 26.2 °F 11.2 °F 1016.8 in SW 3.2 mph 12.9 mph 39 % 0.0 in
16:12 26.0 °F 12.1 °F 1016.8 in SW 3.2 mph 12.9 mph 42 % 0.0 in
16:17 25.9 °F 10.1 °F 1016.8 in West 6.4 mph 12.9 mph 37 % 0.0 in
16:22 25.6 °F 10.6 °F 1016.8 in SSW 1.6 mph 12.9 mph 39 % 0.0 in
16:32 25.7 °F 11.5 °F 1016.8 in SSW 3.2 mph 12.9 mph 41 % 0.0 in
16:37 26.0 °F 11.7 °F 1016.8 in SE 6.4 mph 14.5 mph 41 % 0.0 in
16:42 25.9 °F 11.3 °F 1016.8 in WSW 4.8 mph 14.5 mph 40 % 0.0 in
16:52 26.0 °F 12.1 °F 1016.8 in WNW 3.2 mph 14.5 mph 42 % 0.0 in
17:02 26.0 °F 11.7 °F 1016.8 in West 6.4 mph 12.9 mph 41 % 0.0 in
17:17 26.1 °F 11.8 °F 1016.8 in SW 3.2 mph 17.7 mph 41 % 0.0 in
17:22 26.2 °F 11.9 °F 1016.8 in West 6.4 mph 17.7 mph 41 % 0.0 in
17:27 26.4 °F 12.8 °F 1016.8 in WSW 8.0 mph 16.1 mph 43 % 0.0 in
17:32 26.2 °F 11.9 °F 1016.8 in WSW 6.4 mph 16.1 mph 41 % 0.0 in
17:42 26.4 °F 12.8 °F 1016.8 in WSW 4.8 mph 11.3 mph 43 % 0.0 in
17:47 26.6 °F 12.3 °F 1016.8 in SW 4.8 mph 12.9 mph 41 % 0.0 in
17:52 26.2 °F 12.6 °F 1016.5 in SW 9.7 mph 12.9 mph 43 % 0.0 in
17:57 26.2 °F 12.6 °F 1016.5 in SSW 9.7 mph 12.9 mph 43 % 0.0 in
18:02 26.2 °F 13.3 °F 1016.5 in SSW 3.2 mph 12.9 mph 45 % 0.0 in
18:12 26.2 °F 12.3 °F 1016.5 in WSW 6.4 mph 14.5 mph 42 % 0.0 in
18:17 26.1 °F 12.2 °F 1016.5 in SW 9.7 mph 14.5 mph 42 % 0.0 in
18:22 26.1 °F 12.9 °F 1016.5 in SW 9.7 mph 12.9 mph 44 % 0.0 in
18:27 26.1 °F 12.5 °F 1016.5 in WNW 3.2 mph 12.9 mph 43 % 0.0 in
18:37 25.9 °F 12.7 °F 1016.5 in WSW 6.4 mph 11.3 mph 44 % 0.0 in
18:42 25.8 °F 13.0 °F 1016.5 in West 6.4 mph 9.7 mph 45 % 0.0 in
18:47 25.6 °F 12.1 °F 1016.5 in WSW 4.8 mph 11.3 mph 43 % 0.0 in
18:52 25.3 °F 11.8 °F 1016.5 in WNW 3.2 mph 11.3 mph 43 % 0.0 in
18:57 25.4 °F 12.3 °F 1016.5 in West 3.2 mph 11.3 mph 44 % 0.0 in
19:02 25.5 °F 12.4 °F 1016.5 in WNW 3.2 mph 11.3 mph 44 % 0.0 in
19:07 25.5 °F 12.4 °F 1016.5 in West 3.2 mph 9.7 mph 44 % 0.0 in
19:12 25.5 °F 12.4 °F 1016.5 in WSW 8.0 mph 9.7 mph 44 % 0.0 in
19:17 25.4 °F 12.6 °F 1016.5 in WNW 3.2 mph 9.7 mph 45 % 0.0 in
19:22 25.2 °F 11.7 °F 1016.5 in WSW 4.8 mph 9.7 mph 43 % 0.0 in
19:32 25.1 °F 13.0 °F 1016.5 in WNW 6.4 mph 9.7 mph 47 % 0.0 in
19:37 25.1 °F 13.3 °F 1016.5 in SW 1.6 mph 9.7 mph 48 % 0.0 in
19:42 25.1 °F 13.3 °F 1016.5 in West 3.2 mph 9.7 mph 48 % 0.0 in
19:52 25.3 °F 14.1 °F 1016.5 in West 1.6 mph 6.4 mph 50 % 0.0 in
19:57 25.3 °F 13.8 °F 1016.5 in WNW 1.6 mph 4.8 mph 49 % 0.0 in
20:02 25.4 °F 13.6 °F 1016.5 in WNW 1.6 mph 4.8 mph 48 % 0.0 in
20:12 25.4 °F 13.6 °F 1016.5 in West 1.6 mph 6.4 mph 48 % 0.0 in
20:17 25.4 °F 13.9 °F 1016.8 in Calm   6.4 mph 49 % 0.0 in
20:22 25.5 °F 13.7 °F 1016.8 in WNW 1.6 mph 6.4 mph 48 % 0.0 in
20:32 25.1 °F 13.9 °F 1016.8 in Calm   4.8 mph 50 % 0.0 in
20:37 24.7 °F 14.5 °F 1016.8 in SW 3.2 mph 3.2 mph 53 % 0.0 in
20:42 24.2 °F 14.0 °F 1016.8 in SW 6.4 mph 6.4 mph 53 % 0.0 in
20:47 23.7 °F 14.9 °F 1016.8 in West 3.2 mph 11.3 mph 58 % 0.0 in
20:52 23.2 °F 15.5 °F 1016.8 in SW 8.0 mph 11.3 mph 62 % 0.0 in
20:57 22.9 °F 15.7 °F 1016.8 in SW 3.2 mph 12.9 mph 64 % 0.0 in
21:02 22.7 °F 15.8 °F 1016.8 in SW 6.4 mph 12.9 mph 65 % 0.0 in
21:07 22.6 °F 15.9 °F 1016.8 in SSW 4.8 mph 14.5 mph 66 % 0.0 in
21:12 22.3 °F 15.9 °F 1017.2 in SW 6.4 mph 14.5 mph 67 % 0.0 in
21:17 22.1 °F 15.9 °F 1017.2 in SW 8.0 mph 14.5 mph 68 % 0.0 in
21:27 21.6 °F 16.1 °F 1017.2 in WSW 12.9 mph 12.9 mph 71 % 0.0 in
21:32 21.4 °F 16.1 °F 1017.2 in WSW 6.4 mph 12.9 mph 72 % 0.0 in
21:37 21.1 °F 16.1 °F 1017.2 in WSW 4.8 mph 12.9 mph 73 % 0.0 in
21:42 20.8 °F 16.0 °F 1017.2 in West 4.8 mph 12.9 mph 74 % 0.0 in
21:47 20.6 °F 16.0 °F 1017.5 in SW 4.8 mph 9.7 mph 75 % 0.0 in
21:52 20.4 °F 16.0 °F 1017.5 in WSW 4.8 mph 9.7 mph 76 % 0.0 in
22:02 20.1 °F 15.9 °F 1017.8 in West 3.2 mph 9.7 mph 77 % 0.0 in
22:12 19.9 °F 15.9 °F 1017.8 in West 1.6 mph 8.0 mph 78 % 0.0 in
22:17 19.8 °F 15.9 °F 1017.8 in West 4.8 mph 6.4 mph 78 % 0.0 in
22:22 19.7 °F 15.8 °F 1017.8 in SW 3.2 mph 6.4 mph 78 % 0.0 in
22:27 19.6 °F 15.7 °F 1017.8 in WSW 3.2 mph 8.0 mph 78 % 0.0 in
22:32 19.5 °F 15.8 °F 1017.8 in West 1.6 mph 8.0 mph 79 % 0.0 in
22:42 19.2 °F 15.7 °F 1018.2 in WSW 3.2 mph 6.4 mph 80 % 0.0 in
22:47 19.2 °F 15.7 °F 1018.2 in WSW 1.6 mph 6.4 mph 80 % 0.0 in
22:52 19.1 °F 15.6 °F 1018.2 in WSW 1.6 mph 6.4 mph 80 % 0.0 in
23:02 19.1 °F 15.4 °F 1018.2 in West 4.8 mph 9.7 mph 79 % 0.0 in
23:07 19.2 °F 15.3 °F 1018.5 in WNW 6.4 mph 9.7 mph 78 % 0.0 in
23:12 19.3 °F 15.2 °F 1018.5 in West 4.8 mph 9.7 mph 77 % 0.0 in
23:17 19.3 °F 15.0 °F 1018.5 in West 4.8 mph 12.9 mph 76 % 0.0 in
23:22 19.2 °F 14.9 °F 1018.5 in WNW 8.0 mph 12.9 mph 76 % 0.0 in
23:32 18.9 °F 14.6 °F 1018.5 in NW 8.0 mph 12.9 mph 76 % 0.0 in
23:42 18.8 °F 14.5 °F 1018.5 in WNW 4.8 mph 12.9 mph 76 % 0.0 in
23:52 18.7 °F 14.6 °F 1018.8 in WNW 3.2 mph 12.9 mph 77 % 0.0 in
Meteo18
Compliments of Weather Underground - 4 mb

Script developed by  Jim McMurry - jmcmurry@mwt.net Adapted for the template by  Wim van der Kuil - Leuven-Template.eu

You find our weather info also at:

European Weather Network

Weather Underground

Equipment we use:

Weather-station
Davis Vue

Weather-program
Meteobridge

Weather-server
Raspberry PI 2 B+

Provider
1 and 1

Davis Vue

Meteobridge

Raspberry PI 2 B+

1 and 1